KNLC/NLC METAR and TAF weather

Enter ICAO airport designator
Station Type Date Time Source
KNLC METAR 2021/03/05 12:56 UTC NOAA

KNLC 051256Z AUTO 32007KT 10SM CLR 03/M01 A3022 RMK AO2 SLP233 T00331006


Station Type Date Time Source
KNLC Decoded METAR 2021/03/05 12:56 UTC NOAA

LEMOORE NAVAL AIR STATION, CA, United States (KNLC) 36-20N 119-57W 72M
Mar 05, 2021 - 07:56 AM EST / 2021.03.05 1256 UTC
Wind: from the NW (320 degrees) at 8 MPH (7 KT):0
Visibility: 10 mile(s):0
Sky conditions: clear
Temperature: 37.9 F (3.3 C)
Dew Point: 30.9 F (-0.6 C)
Relative Humidity: 75%
Pressure (altimeter): 30.22 in. Hg (1023 hPa)
ob: KNLC 051256Z AUTO 32007KT 10SM CLR 03/M01 A3022 RMK AO2 SLP233 T00331006
cycle: 13

Station Type Date Time Source
KNLC TAF 2021/03/05 07:56 UTC NOAA

TAF KNLC 0507/0607 VRB06KT 9999 SKC QNH3020INS
FM051500 VRB06KT 9999 SKC QNH3000INS
FM052000 VRB06KT 9999 FEW200 QNH2991INS AUTOMATED SENSOR METWATCH 0508 TIL 0515 T02/0514Z T24/0523Z FS30012

Example: see airport list